グアダラハラ の空港の天気 - METARとTAF

ドン・ミゲル・イダルゴ・イ・コスティージャ国際空港 ( MMGL / GDL ) - メキシコ ハリスコ州グアダラハラ
飛行場実況気象(Metar)
観測時間01/19 08:47 CST (01/19 14:47 UTC)
風向・風速静穏 0m/s
視程10km以上
天気現象
全天の8割程度の雲 雲底高度 9140m
気温11℃
湿度76%
気圧1017.2hPa
METARMMGL 191447Z 00000KT 7SM BKN300 11/07 A3026 RMK SLP172 52013 959 8/001
過去の天気等 Google飛行場航空写真 Wunderground天気予報

過去48時間のMETAR

飛行場予報(TAF)
発表時間: 1/19 04:56 CST (1/19 10:56 UTC)
予報対象時間: 19日6時 CST ~ 20日12時 CST
風向・風速西北西 3m/s
視程10km以上
全天の4割程度の雲 雲底高度 2440m
全天の8割程度の雲 雲底高度 9140m
19日12時 CST から
風向・風速北 5m/s
視程10km以上
全天の8割程度の雲 雲底高度 7620m
19日20時 CST から
風向・風速北 3m/s
視程10km以上
全天の8割程度の雲 雲底高度 7620m
20日10時 CST から
風向・風速東北東 3m/s
視程10km以上
なし
TAF MMGL 191056Z 1912/2018 30005KT P6SM SCT080 BKN300 TX23/1921Z TN07/1913Z
FM191800 36010KT P6SM BKN250
FM200200 36005KT P6SM BKN250
FM201600 06005KT P6SM SKC